General Aviation Weather

Text Reports

Enter one or more of the following location identifiers separated by a space:

Zip Code, Four-Character ICAO or Three-Character IATA airport codes.

METAR - Aviation Routine Weather Report
KSMO - Santa Monica, California
Updated at 5:51 PM GMT on July 28, 2014 (10:51 AM PDT):
METAR KSMO 281751Z AUTO 21003KT 10SM CLR 25/17 A3007 RMK AO2 SLP182 T02500167 10250 20206 50004
TAF - Terminal Area Forecast
KSMO - Santa Monica, California
Updated at 5:51 PM GMT on July 28, 2014 (10:51 AM PDT):
No TAF is currently available for this location.
Decoded:
No decoded TAF is available.
PIREP - Pilot Weather Report
KSMO - Santa Monica, California
Updated at 5:51 PM GMT on July 28, 2014 (10:51 AM PDT):
No PIREP is currently available for this location.
AIRMET - Airmens Meteorological Information
KSMO - Santa Monica, California
Updated at 5:51 PM GMT on July 28, 2014 (10:51 AM PDT):
No AIRMET is currently available for this location.
SIGMET - Significant Meteorological Information
KSMO - Santa Monica, California
Updated at 5:51 PM GMT on July 28, 2014 (10:51 AM PDT):
No SIGMET is currently available for this location.
NOTAM - Notice to Airmen
KSMO - Santa Monica, California
Updated at 5:51 PM GMT on July 28, 2014 (10:51 AM PDT):
No NOTAM is currently available for this location.
Forecast Area
KSMO - Santa Monica, California
Updated at 5:51 PM GMT on July 28, 2014 (10:51 AM PDT):
No NOTAM is currently available for this location.
Aviation Weather Maps